sensor_id;sensor_type;location;lat;lon;timestamp;pressure;altitude;pressure_sealevel;temperature;humidity
62057;BME280;48016;50.284;18.860;2022-09-01T00:02:15;98549.38;;;12.97;74.31
62057;BME280;48016;50.284;18.860;2022-09-01T00:04:43;98542.30;;;12.96;74.58
62057;BME280;48016;50.284;18.860;2022-09-01T00:07:12;98542.58;;;12.94;74.60
62057;BME280;48016;50.284;18.860;2022-09-01T00:09:40;98539.30;;;12.92;74.49
62057;BME280;48016;50.284;18.860;2022-09-01T00:12:08;98545.82;;;12.91;74.42
62057;BME280;48016;50.284;18.860;2022-09-01T00:14:38;98538.21;;;12.88;74.63
62057;BME280;48016;50.284;18.860;2022-09-01T00:17:08;98538.21;;;12.88;74.83
62057;BME280;48016;50.284;18.860;2022-09-01T00:19:37;98537.93;;;12.89;74.57
62057;BME280;48016;50.284;18.860;2022-09-01T00:22:06;98541.73;;;12.88;74.54
62057;BME280;48016;50.284;18.860;2022-09-01T00:24:34;98542.83;;;12.87;74.70
62057;BME280;48016;50.284;18.860;2022-09-01T00:27:02;98537.40;;;12.87;74.55
62057;BME280;48016;50.284;18.860;2022-09-01T00:29:29;98541.98;;;12.87;74.68
62057;BME280;48016;50.284;18.860;2022-09-01T00:31:57;98534.13;;;12.85;74.91
62057;BME280;48016;50.284;18.860;2022-09-01T00:34:25;98547.94;;;12.84;74.65
62057;BME280;48016;50.284;18.860;2022-09-01T00:36:52;98533.84;;;12.82;74.94
62057;BME280;48016;50.284;18.860;2022-09-01T00:39:22;98539.27;;;12.82;74.77
62057;BME280;48016;50.284;18.860;2022-09-01T00:41:49;98539.80;;;12.79;74.80
62057;BME280;48016;50.284;18.860;2022-09-01T00:44:19;98532.72;;;12.78;75.02
62057;BME280;48016;50.284;18.860;2022-09-01T00:46:55;98528.95;;;12.79;74.98
62057;BME280;48016;50.284;18.860;2022-09-01T00:49:30;98530.00;;;12.78;74.95
62057;BME280;48016;50.284;18.860;2022-09-01T00:52:06;98533.81;;;12.77;74.93
62057;BME280;48016;50.284;18.860;2022-09-01T00:54:39;98526.77;;;12.76;74.58
62057;BME280;48016;50.284;18.860;2022-09-01T00:57:08;98524.30;;;12.74;74.97
62057;BME280;48016;50.284;18.860;2022-09-01T00:59:38;98521.30;;;12.71;75.67
62057;BME280;48016;50.284;18.860;2022-09-01T01:02:09;98528.88;;;12.69;75.14
62057;BME280;48016;50.284;18.860;2022-09-01T01:04:36;98529.16;;;12.67;75.70
62057;BME280;48016;50.284;18.860;2022-09-01T01:07:04;98530.49;;;12.64;76.10
62057;BME280;48016;50.284;18.860;2022-09-01T01:09:35;98523.13;;;12.60;75.53
62057;BME280;48016;50.284;18.860;2022-09-01T01:12:04;98528.84;;;12.58;76.02
62057;BME280;48016;50.284;18.860;2022-09-01T01:14:34;98526.62;;;12.55;76.30
62057;BME280;48016;50.284;18.860;2022-09-01T01:17:02;98528.23;;;12.51;76.62
62057;BME280;48016;50.284;18.860;2022-09-01T01:19:59;98528.76;;;12.48;76.61
62057;BME280;48016;50.284;18.860;2022-09-01T01:25:44;98522.20;;;12.39;77.58
62057;BME280;48016;50.284;18.860;2022-09-01T01:30:50;98527.58;;;12.34;76.78
62057;BME280;48016;50.284;18.860;2022-09-01T01:33:33;98522.72;;;12.36;76.88
62057;BME280;48016;50.284;18.860;2022-09-01T01:36:02;98526.48;;;12.35;77.37
62057;BME280;48016;50.284;18.860;2022-09-01T01:38:33;98529.72;;;12.32;77.23
62057;BME280;48016;50.284;18.860;2022-09-01T01:41:02;98527.29;;;12.30;77.33
62057;BME280;48016;50.284;18.860;2022-09-01T01:43:30;98526.48;;;12.30;77.84
62057;BME280;48016;50.284;18.860;2022-09-01T01:45:57;98524.83;;;12.29;77.65
62057;BME280;48016;50.284;18.860;2022-09-01T01:48:28;98524.83;;;12.29;77.38
62057;BME280;48016;50.284;18.860;2022-09-01T01:51:01;98516.45;;;12.30;77.57
62057;BME280;48016;50.284;18.860;2022-09-01T01:53:29;98518.34;;;12.30;77.62
62057;BME280;48016;50.284;18.860;2022-09-01T01:55:56;98523.77;;;12.30;77.30
62057;BME280;48016;50.284;18.860;2022-09-01T01:58:25;98518.88;;;12.32;77.46
62057;BME280;48016;50.284;18.860;2022-09-01T02:00:56;98519.97;;;12.31;77.39
62057;BME280;48016;50.284;18.860;2022-09-01T02:03:27;98511.84;;;12.31;77.54
62057;BME280;48016;50.284;18.860;2022-09-01T02:06:00;98521.87;;;12.30;77.67
62057;BME280;48016;50.284;18.860;2022-09-01T02:08:30;98512.36;;;12.28;77.62
62057;BME280;48016;50.284;18.860;2022-09-01T02:10:57;98516.16;;;12.27;77.63
62057;BME280;48016;50.284;18.860;2022-09-01T02:13:26;98518.30;;;12.25;78.31
62057;BME280;48016;50.284;18.860;2022-09-01T02:15:59;98518.30;;;12.25;77.59
62057;BME280;48016;50.284;18.860;2022-09-01T02:18:32;98518.30;;;12.25;77.66
62057;BME280;48016;50.284;18.860;2022-09-01T02:21:04;98516.65;;;12.24;77.76
62057;BME280;48016;50.284;18.860;2022-09-01T02:23:37;98516.92;;;12.22;77.97
62057;BME280;48016;50.284;18.860;2022-09-01T02:26:06;98512.31;;;12.23;77.49
62057;BME280;48016;50.284;18.860;2022-09-01T02:28:38;98516.11;;;12.21;77.95
62057;BME280;48016;50.284;18.860;2022-09-01T02:31:10;98515.84;;;12.23;77.58
62057;BME280;48016;50.284;18.860;2022-09-01T02:33:39;98518.02;;;12.21;77.92
62057;BME280;48016;50.284;18.860;2022-09-01T02:36:10;98522.59;;;12.20;77.82
62057;BME280;48016;50.284;18.860;2022-09-01T02:38:41;98522.05;;;12.18;77.90
62057;BME280;48016;50.284;18.860;2022-09-01T02:41:11;98513.36;;;12.16;78.43
62057;BME280;48016;50.284;18.860;2022-09-01T02:43:40;98511.41;;;12.12;78.69
62057;BME280;48016;50.284;18.860;2022-09-01T02:46:10;98516.02;;;12.11;78.49
62057;BME280;48016;50.284;18.860;2022-09-01T02:48:42;98515.48;;;12.09;78.06
62057;BME280;48016;50.284;18.860;2022-09-01T02:51:15;98511.94;;;12.09;78.59
62057;BME280;48016;50.284;18.860;2022-09-01T02:53:43;98513.02;;;12.08;78.37
62057;BME280;48016;50.284;18.860;2022-09-01T02:56:14;98509.75;;;12.06;78.41
62057;BME280;48016;50.284;18.860;2022-09-01T02:58:44;98506.74;;;12.02;78.87
62057;BME280;48016;50.284;18.860;2022-09-01T03:01:19;98513.20;;;11.96;79.60
62057;BME280;48016;50.284;18.860;2022-09-01T03:03:51;98511.02;;;11.93;79.32
62057;BME280;48016;50.284;18.860;2022-09-01T03:06:19;98508.30;;;11.93;79.46
62057;BME280;48016;50.284;18.860;2022-09-01T03:08:51;98510.45;;;11.91;79.20
62057;BME280;48016;50.284;18.860;2022-09-01T03:11:19;98499.04;;;11.89;79.70
62057;BME280;48016;50.284;18.860;2022-09-01T03:13:47;98505.55;;;11.88;79.52
62057;BME280;48016;50.284;18.860;2022-09-01T03:16:14;98508.25;;;11.88;79.35
62057;BME280;48016;50.284;18.860;2022-09-01T03:18:41;98508.73;;;11.85;79.81
62057;BME280;48016;50.284;18.860;2022-09-01T03:21:10;98507.36;;;11.82;79.36
62057;BME280;48016;50.284;18.860;2022-09-01T03:23:43;98506.25;;;11.78;79.98
62057;BME280;48016;50.284;18.860;2022-09-01T03:26:12;98507.58;;;11.75;79.96
62057;BME280;48016;50.284;18.860;2022-09-01T03:28:40;98506.20;;;11.73;80.07
62057;BME280;48016;50.284;18.860;2022-09-01T03:31:08;98506.45;;;11.71;79.86
62057;BME280;48016;50.284;18.860;2022-09-01T03:33:35;98512.70;;;11.72;79.96
62057;BME280;48016;50.284;18.860;2022-09-01T03:36:04;98509.67;;;11.68;79.80
62057;BME280;48016;50.284;18.860;2022-09-01T03:38:31;98508.05;;;11.67;80.18
62057;BME280;48016;50.284;18.860;2022-09-01T03:41:02;98515.59;;;11.65;80.07
62057;BME280;48016;50.284;18.860;2022-09-01T03:43:31;98511.84;;;11.66;79.88
62057;BME280;48016;50.284;18.860;2022-09-01T03:45:59;98514.55;;;11.66;80.37
62057;BME280;48016;50.284;18.860;2022-09-01T03:48:27;98517.50;;;11.65;80.36
62057;BME280;48016;50.284;18.860;2022-09-01T03:50:57;98513.41;;;11.62;80.40
62057;BME280;48016;50.284;18.860;2022-09-01T03:53:33;98516.11;;;11.62;80.16
62057;BME280;48016;50.284;18.860;2022-09-01T03:56:03;98518.28;;;11.60;80.01
62057;BME280;48016;50.284;18.860;2022-09-01T03:58:31;98519.34;;;11.59;80.38
62057;BME280;48016;50.284;18.860;2022-09-01T04:00:59;98516.63;;;11.59;80.05
62057;BME280;48016;50.284;18.860;2022-09-01T04:03:30;98526.41;;;11.60;80.88
62057;BME280;48016;50.284;18.860;2022-09-01T04:05:59;98520.99;;;11.60;80.24
62057;BME280;48016;50.284;18.860;2022-09-01T04:08:27;98519.61;;;11.58;81.09
62057;BME280;48016;50.284;18.860;2022-09-01T04:11:00;98516.33;;;11.56;80.74
62057;BME280;48016;50.284;18.860;2022-09-01T04:13:32;98522.55;;;11.56;81.36
62057;BME280;48016;50.284;18.860;2022-09-01T04:16:00;98525.27;;;11.56;80.68
62057;BME280;48016;50.284;18.860;2022-09-01T04:18:27;98532.58;;;11.56;80.98
62057;BME280;48016;50.284;18.860;2022-09-01T04:20:58;98533.39;;;11.56;80.73
62057;BME280;48016;50.284;18.860;2022-09-01T04:23:30;98530.95;;;11.54;81.24
62057;BME280;48016;50.284;18.860;2022-09-01T04:26:07;98526.08;;;11.57;81.12
62057;BME280;48016;50.284;18.860;2022-09-01T04:28:40;98537.23;;;11.60;80.88
62057;BME280;48016;50.284;18.860;2022-09-01T04:31:09;98533.45;;;11.61;81.27
62057;BME280;48016;50.284;18.860;2022-09-01T04:33:40;98532.12;;;11.64;81.15
62057;BME280;48016;50.284;18.860;2022-09-01T04:36:20;98536.45;;;11.65;81.03
62057;BME280;48016;50.284;18.860;2022-09-01T04:38:51;98533.50;;;11.66;80.98
62057;BME280;48016;50.284;18.860;2022-09-01T04:41:24;98532.98;;;11.69;81.01
62057;BME280;48016;50.284;18.860;2022-09-01T04:43:52;98542.50;;;11.72;81.30
62057;BME280;48016;50.284;18.860;2022-09-01T04:46:24;98537.62;;;11.74;80.88
62057;BME280;48016;50.284;18.860;2022-09-01T04:48:55;98535.23;;;11.78;80.71
62057;BME280;48016;50.284;18.860;2022-09-01T04:51:24;98541.20;;;11.80;80.63
62057;BME280;48016;50.284;18.860;2022-09-01T04:53:57;98535.26;;;11.83;80.66
62057;BME280;48016;50.284;18.860;2022-09-01T04:56:25;98537.48;;;11.86;80.49
62057;BME280;48016;50.284;18.860;2022-09-01T04:58:53;98543.47;;;11.88;80.53
62057;BME280;48016;50.284;18.860;2022-09-01T05:01:24;98539.19;;;11.92;80.41
62057;BME280;48016;50.284;18.860;2022-09-01T05:03:52;98544.09;;;11.95;80.28
62057;BME280;48016;50.284;18.860;2022-09-01T05:06:28;98541.41;;;12.00;80.25
62057;BME280;48016;50.284;18.860;2022-09-01T05:08:55;98544.16;;;12.05;79.92
62057;BME280;48016;50.284;18.860;2022-09-01T05:11:24;98547.16;;;12.09;79.96
62057;BME280;48016;50.284;18.860;2022-09-01T05:13:53;98542.88;;;12.13;79.90
62057;BME280;48016;50.284;18.860;2022-09-01T05:16:23;98539.70;;;12.21;79.81
62057;BME280;48016;50.284;18.860;2022-09-01T05:18:52;98541.90;;;12.29;79.68
62057;BME280;48016;50.284;18.860;2022-09-01T05:21:22;98531.38;;;12.33;79.33
62057;BME280;48016;50.284;18.860;2022-09-01T05:23:58;98538.47;;;12.39;79.32
62057;BME280;48016;50.284;18.860;2022-09-01T05:26:29;98535.80;;;12.44;79.03
62057;BME280;48016;50.284;18.860;2022-09-01T05:29:00;98527.14;;;12.47;78.86
62057;BME280;48016;50.284;18.860;2022-09-01T05:31:29;98537.47;;;12.55;78.68
62057;BME280;48016;50.284;18.860;2022-09-01T05:34:00;98531.30;;;12.65;78.59
62057;BME280;48016;50.284;18.860;2022-09-01T05:36:29;98533.84;;;12.82;78.33
62057;BME280;48016;50.284;18.860;2022-09-01T05:39:00;98536.65;;;13.02;78.18
62057;BME280;48016;50.284;18.860;2022-09-01T05:41:27;98539.44;;;13.23;77.81
62057;BME280;48016;50.284;18.860;2022-09-01T05:43:55;98536.80;;;13.38;77.21
62057;BME280;48016;50.284;18.860;2022-09-01T05:46:24;98540.08;;;13.50;76.95
62057;BME280;48016;50.284;18.860;2022-09-01T05:48:54;98543.39;;;13.63;76.72
62057;BME280;48016;50.284;18.860;2022-09-01T05:51:24;98538.52;;;13.75;76.15
62057;BME280;48016;50.284;18.860;2022-09-01T05:53:54;98543.41;;;13.93;75.42
62057;BME280;48016;50.284;18.860;2022-09-01T05:56:26;98539.08;;;14.08;75.32
62057;BME280;48016;50.284;18.860;2022-09-01T05:58:54;98547.78;;;14.35;74.57
62057;BME280;48016;50.284;18.860;2022-09-01T06:01:27;98555.95;;;14.56;73.04
62057;BME280;48016;50.284;18.860;2022-09-01T06:04:01;98547.73;;;14.76;72.94
62057;BME280;48016;50.284;18.860;2022-09-01T06:06:41;98543.53;;;15.09;72.79
62057;BME280;48016;50.284;18.860;2022-09-01T06:09:13;98545.59;;;15.38;71.82
62057;BME280;48016;50.284;18.860;2022-09-01T06:11:46;98547.89;;;15.70;71.75
62057;BME280;48016;50.284;18.860;2022-09-01T06:14:16;98549.03;;;16.03;67.94
62057;BME280;48016;50.284;18.860;2022-09-01T06:16:43;98545.91;;;16.20;69.26
62057;BME280;48016;50.284;18.860;2022-09-01T06:19:13;98542.73;;;16.37;69.85
62057;BME280;48016;50.284;18.860;2022-09-01T06:21:40;98541.73;;;16.57;68.48
62057;BME280;48016;50.284;18.860;2022-09-01T06:24:08;98546.15;;;16.53;66.74
62057;BME280;48016;50.284;18.860;2022-09-01T06:26:36;98554.42;;;16.43;67.22
62057;BME280;48016;50.284;18.860;2022-09-01T06:29:08;98558.49;;;16.45;67.13
62057;BME280;48016;50.284;18.860;2022-09-01T06:31:41;98553.53;;;16.53;66.70
62057;BME280;48016;50.284;18.860;2022-09-01T06:34:11;98551.56;;;16.58;67.06
62057;BME280;48016;50.284;18.860;2022-09-01T06:36:45;98560.22;;;16.65;66.56
62057;BME280;48016;50.284;18.860;2022-09-01T06:39:14;98552.03;;;16.65;66.71
62057;BME280;48016;50.284;18.860;2022-09-01T06:41:49;98556.49;;;16.85;66.63
62057;BME280;48016;50.284;18.860;2022-09-01T06:44:19;98569.11;;;16.81;65.76
62057;BME280;48016;50.284;18.860;2022-09-01T06:46:49;98566.25;;;16.91;65.72
62057;BME280;48016;50.284;18.860;2022-09-01T06:49:19;98579.85;;;17.21;65.98
62057;BME280;48016;50.284;18.860;2022-09-01T06:51:49;98574.61;;;17.48;65.47
62057;BME280;48016;50.284;18.860;2022-09-01T06:54:18;98579.80;;;17.69;64.76
62057;BME280;48016;50.284;18.860;2022-09-01T06:56:45;98572.20;;;17.84;61.54
62057;BME280;48016;50.284;18.860;2022-09-01T06:59:13;98578.42;;;18.09;62.04
62057;BME280;48016;50.284;18.860;2022-09-01T07:01:41;98585.84;;;18.41;59.93
62057;BME280;48016;50.284;18.860;2022-09-01T07:04:08;98584.88;;;18.65;59.58
62057;BME280;48016;50.284;18.860;2022-09-01T07:06:38;98583.45;;;18.86;59.36
62057;BME280;48016;50.284;18.860;2022-09-01T07:09:06;98579.18;;;18.94;57.56
62057;BME280;48016;50.284;18.860;2022-09-01T07:11:33;98583.85;;;18.93;55.75
62057;BME280;48016;50.284;18.860;2022-09-01T07:14:04;98589.42;;;18.88;56.67
62057;BME280;48016;50.284;18.860;2022-09-01T07:16:35;98578.59;;;18.64;57.93
62057;BME280;48016;50.284;18.860;2022-09-01T07:19:07;98582.34;;;18.55;58.66
62057;BME280;48016;50.284;18.860;2022-09-01T07:21:42;98587.24;;;18.39;59.04
62057;BME280;48016;50.284;18.860;2022-09-01T07:24:10;98595.51;;;18.52;58.75
62057;BME280;48016;50.284;18.860;2022-09-01T07:26:40;98581.73;;;18.58;58.28
62057;BME280;48016;50.284;18.860;2022-09-01T07:29:08;98595.98;;;18.73;58.24
62057;BME280;48016;50.284;18.860;2022-09-01T07:31:40;98587.80;;;18.87;56.92
62057;BME280;48016;50.284;18.860;2022-09-01T07:34:12;98595.55;;;18.66;56.37
62057;BME280;48016;50.284;18.860;2022-09-01T07:36:42;98593.18;;;18.60;56.57
62057;BME280;48016;50.284;18.860;2022-09-01T07:39:11;98594.09;;;18.88;57.57
62057;BME280;48016;50.284;18.860;2022-09-01T07:41:40;98594.84;;;19.21;57.74
62057;BME280;48016;50.284;18.860;2022-09-01T07:44:08;98606.72;;;19.44;56.17
62057;BME280;48016;50.284;18.860;2022-09-01T07:46:39;98595.33;;;19.37;54.19
62057;BME280;48016;50.284;18.860;2022-09-01T07:49:07;98608.94;;;19.28;54.48
62057;BME280;48016;50.284;18.860;2022-09-01T07:51:35;98597.78;;;19.38;54.75
62057;BME280;48016;50.284;18.860;2022-09-01T07:54:03;98599.78;;;19.47;54.04
62057;BME280;48016;50.284;18.860;2022-09-01T07:56:30;98597.78;;;19.38;53.39
62057;BME280;48016;50.284;18.860;2022-09-01T07:58:57;98598.36;;;19.49;54.04
62057;BME280;48016;50.284;18.860;2022-09-01T08:01:26;98600.52;;;19.66;54.03
62057;BME280;48016;50.284;18.860;2022-09-01T08:03:56;98594.22;;;19.66;53.17
62057;BME280;48016;50.284;18.860;2022-09-01T08:06:26;98593.09;;;19.67;53.46
62057;BME280;48016;50.284;18.860;2022-09-01T08:08:56;98587.98;;;19.88;53.08
62057;BME280;48016;50.284;18.860;2022-09-01T08:11:26;98593.55;;;19.96;51.35
62057;BME280;48016;50.284;18.860;2022-09-01T08:13:56;98594.84;;;19.99;51.21
62057;BME280;48016;50.284;18.860;2022-09-01T08:16:28;98607.67;;;19.90;51.79
62057;BME280;48016;50.284;18.860;2022-09-01T08:18:56;98597.05;;;19.74;50.87
62057;BME280;48016;50.284;18.860;2022-09-01T08:21:24;98591.05;;;19.72;51.51
62057;BME280;48016;50.284;18.860;2022-09-01T08:23:53;98591.31;;;19.84;51.16
62057;BME280;48016;50.284;18.860;2022-09-01T08:26:23;98599.17;;;19.77;50.64
62057;BME280;48016;50.284;18.860;2022-09-01T08:28:52;98601.64;;;19.65;50.45
62057;BME280;48016;50.284;18.860;2022-09-01T08:31:22;98599.07;;;19.55;49.98
62057;BME280;48016;50.284;18.860;2022-09-01T08:33:51;98601.91;;;19.50;51.47
62057;BME280;48016;50.284;18.860;2022-09-01T08:36:18;98587.00;;;19.56;51.89
62057;BME280;48016;50.284;18.860;2022-09-01T08:38:45;98597.22;;;19.64;51.43
62057;BME280;48016;50.284;18.860;2022-09-01T08:41:22;98597.84;;;19.61;51.01
62057;BME280;48016;50.284;18.860;2022-09-01T08:46:40;98597.66;;;19.71;51.28
62057;BME280;48016;50.284;18.860;2022-09-01T08:49:19;98596.41;;;19.91;51.55
62057;BME280;48016;50.284;18.860;2022-09-01T08:51:53;98604.47;;;20.10;50.59
62057;BME280;48016;50.284;18.860;2022-09-01T08:54:44;98595.86;;;20.03;50.84
62057;BME280;48016;50.284;18.860;2022-09-01T08:57:28;98596.59;;;19.95;50.24
62057;BME280;48016;50.284;18.860;2022-09-01T08:59:57;98590.48;;;19.98;50.72
62057;BME280;48016;50.284;18.860;2022-09-01T09:03:05;98592.75;;;20.18;50.43
62057;BME280;48016;50.284;18.860;2022-09-01T09:08:30;98594.58;;;20.23;50.42
62057;BME280;48016;50.284;18.860;2022-09-01T09:11:05;98589.94;;;20.09;50.26
62057;BME280;48016;50.284;18.860;2022-09-01T09:16:37;98589.16;;;19.95;50.95
62057;BME280;48016;50.284;18.860;2022-09-01T09:21:59;98590.33;;;19.80;50.55
62057;BME280;48016;50.284;18.860;2022-09-01T09:24:30;98584.13;;;19.61;51.49
62057;BME280;48016;50.284;18.860;2022-09-01T09:30:01;98588.42;;;19.53;50.50
62057;BME280;48016;50.284;18.860;2022-09-01T09:32:58;98580.20;;;19.53;49.91
62057;BME280;48016;50.284;18.860;2022-09-01T09:35:36;98582.66;;;19.27;49.79
62057;BME280;48016;50.284;18.860;2022-09-01T09:41:14;98591.67;;;19.14;49.76
62057;BME280;48016;50.284;18.860;2022-09-01T09:44:20;98582.65;;;19.13;49.71
62057;BME280;48016;50.284;18.860;2022-09-01T09:46:40;98574.02;;;19.20;50.06
62057;BME280;48016;50.284;18.860;2022-09-01T09:49:23;98579.92;;;19.27;49.18
62057;BME280;48016;50.284;18.860;2022-09-01T09:51:54;98587.44;;;19.35;49.01
62057;BME280;48016;50.284;18.860;2022-09-01T09:54:30;98586.91;;;19.33;48.77
62057;BME280;48016;50.284;18.860;2022-09-01T09:57:16;98590.05;;;19.40;48.19
62057;BME280;48016;50.284;18.860;2022-09-01T10:04:51;98573.57;;;19.82;48.91
62057;BME280;48016;50.284;18.860;2022-09-01T10:09:50;98580.38;;;20.07;45.98
62057;BME280;48016;50.284;18.860;2022-09-01T10:12:19;98579.77;;;20.10;45.83
62057;BME280;48016;50.284;18.860;2022-09-01T10:14:52;98591.14;;;20.17;44.61
62057;BME280;48016;50.284;18.860;2022-09-01T10:17:25;98577.34;;;20.08;43.55
62057;BME280;48016;50.284;18.860;2022-09-01T10:20:06;98584.27;;;20.06;45.49
62057;BME280;48016;50.284;18.860;2022-09-01T10:22:36;98585.14;;;20.15;44.87
62057;BME280;48016;50.284;18.860;2022-09-01T10:25:06;98574.67;;;20.17;44.18
62057;BME280;48016;50.284;18.860;2022-09-01T10:27:36;98576.54;;;20.08;43.99
62057;BME280;48016;50.284;18.860;2022-09-01T10:32:39;98580.13;;;19.95;44.13
62057;BME280;48016;50.284;18.860;2022-09-01T10:35:15;98587.07;;;19.78;44.87
62057;BME280;48016;50.284;18.860;2022-09-01T10:37:46;98573.16;;;19.61;44.98
62057;BME280;48016;50.284;18.860;2022-09-01T10:42:56;98575.05;;;19.24;44.80
62057;BME280;48016;50.284;18.860;2022-09-01T10:50:48;98565.28;;;19.32;45.92
62057;BME280;48016;50.284;18.860;2022-09-01T11:15:36;98564.02;;;18.69;46.70
62057;BME280;48016;50.284;18.860;2022-09-01T11:18:30;98561.97;;;18.61;45.76
62057;BME280;48016;50.284;18.860;2022-09-01T11:21:32;98567.53;;;18.56;46.48
62057;BME280;48016;50.284;18.860;2022-09-01T11:27:09;98561.44;;;19.05;46.47
62057;BME280;48016;50.284;18.860;2022-09-01T11:30:00;98558.19;;;19.17;44.93
62057;BME280;48016;50.284;18.860;2022-09-01T11:32:33;98554.02;;;19.19;45.23
62057;BME280;48016;50.284;18.860;2022-09-01T11:35:14;98553.51;;;19.17;44.89
62057;BME280;48016;50.284;18.860;2022-09-01T11:37:47;98545.61;;;19.16;44.37
62057;BME280;48016;50.284;18.860;2022-09-01T11:40:23;98541.55;;;19.27;45.39
62057;BME280;48016;50.284;18.860;2022-09-01T11:42:53;98545.78;;;19.47;45.30
62057;BME280;48016;50.284;18.860;2022-09-01T11:45:26;98549.80;;;19.63;44.83
62057;BME280;48016;50.284;18.860;2022-09-01T11:48:06;98547.78;;;19.69;44.29
62057;BME280;48016;50.284;18.860;2022-09-01T11:50:39;98554.91;;;19.56;42.56
62057;BME280;48016;50.284;18.860;2022-09-01T11:55:43;98545.31;;;19.04;44.13
62057;BME280;48016;50.284;18.860;2022-09-01T11:58:14;98550.37;;;18.96;43.41
62057;BME280;48016;50.284;18.860;2022-09-01T12:00:56;98539.92;;;18.99;43.63
62057;BME280;48016;50.284;18.860;2022-09-01T12:03:27;98536.25;;;19.03;43.76
62057;BME280;48016;50.284;18.860;2022-09-01T12:06:04;98538.09;;;19.22;43.40
62057;BME280;48016;50.284;18.860;2022-09-01T12:08:36;98538.38;;;19.34;42.91
62057;BME280;48016;50.284;18.860;2022-09-01T12:11:10;98530.45;;;19.32;41.85
62057;BME280;48016;50.284;18.860;2022-09-01T12:13:40;98531.38;;;19.41;42.37
62057;BME280;48016;50.284;18.860;2022-09-01T12:16:09;98529.33;;;19.47;42.56
62057;BME280;48016;50.284;18.860;2022-09-01T12:18:46;98539.47;;;19.47;42.01
62057;BME280;48016;50.284;18.860;2022-09-01T12:21:35;98529.86;;;19.35;42.06
62057;BME280;48016;50.284;18.860;2022-09-01T12:24:15;98524.67;;;19.34;41.91
62057;BME280;48016;50.284;18.860;2022-09-01T12:26:45;98533.70;;;19.34;42.86
62057;BME280;48016;50.284;18.860;2022-09-01T12:29:13;98538.66;;;19.46;43.02
62057;BME280;48016;50.284;18.860;2022-09-01T12:31:42;98535.38;;;19.58;41.53
62057;BME280;48016;50.284;18.860;2022-09-01T12:34:56;98526.67;;;19.56;43.50
62057;BME280;48016;50.284;18.860;2022-09-01T12:37:25;98527.16;;;19.58;43.30
62057;BME280;48016;50.284;18.860;2022-09-01T12:39:57;98519.84;;;19.67;43.12
62057;BME280;48016;50.284;18.860;2022-09-01T12:42:32;98525.41;;;19.76;43.06
62057;BME280;48016;50.284;18.860;2022-09-01T12:45:05;98528.04;;;19.81;42.37
62057;BME280;48016;50.284;18.860;2022-09-01T12:50:04;98532.72;;;19.80;42.32
62057;BME280;48016;50.284;18.860;2022-09-01T12:55:27;98527.13;;;19.35;42.28
62057;BME280;48016;50.284;18.860;2022-09-01T12:57:56;98529.97;;;19.16;41.44
62057;BME280;48016;50.284;18.860;2022-09-01T13:00:31;98530.38;;;18.96;42.15
62057;BME280;48016;50.284;18.860;2022-09-01T13:05:48;98532.86;;;18.65;42.57
62057;BME280;48016;50.284;18.860;2022-09-01T13:08:19;98521.67;;;18.47;42.76
62057;BME280;48016;50.284;18.860;2022-09-01T13:10:52;98524.69;;;18.32;43.55
62057;BME280;48016;50.284;18.860;2022-09-01T13:13:21;98522.03;;;18.27;43.80
62057;BME280;48016;50.284;18.860;2022-09-01T13:15:56;98521.38;;;18.16;43.84
62057;BME280;48016;50.284;18.860;2022-09-01T13:18:29;98523.91;;;18.13;44.05
62057;BME280;48016;50.284;18.860;2022-09-01T13:20:57;98515.10;;;18.16;43.95
62057;BME280;48016;50.284;18.860;2022-09-01T13:23:24;98520.50;;;18.21;43.48
62057;BME280;48016;50.284;18.860;2022-09-01T13:25:52;98521.75;;;18.28;41.57
62057;BME280;48016;50.284;18.860;2022-09-01T13:28:19;98511.52;;;18.34;41.71
62057;BME280;48016;50.284;18.860;2022-09-01T13:30:58;98520.06;;;18.46;42.82
62057;BME280;48016;50.284;18.860;2022-09-01T13:33:26;98522.59;;;18.57;42.05
62057;BME280;48016;50.284;18.860;2022-09-01T13:35:54;98518.64;;;18.63;41.68
62057;BME280;48016;50.284;18.860;2022-09-01T13:38:21;98522.42;;;18.67;42.17
62057;BME280;48016;50.284;18.860;2022-09-01T13:40:49;98520.29;;;18.64;42.15
62057;BME280;48016;50.284;18.860;2022-09-01T13:43:19;98525.33;;;18.57;41.54
62057;BME280;48016;50.284;18.860;2022-09-01T13:45:48;98532.70;;;18.42;41.68
62057;BME280;48016;50.284;18.860;2022-09-01T13:48:16;98530.37;;;18.36;41.85
62057;BME280;48016;50.284;18.860;2022-09-01T13:50:44;98524.25;;;18.25;41.60
62057;BME280;48016;50.284;18.860;2022-09-01T13:53:12;98526.17;;;18.24;42.41
62057;BME280;48016;50.284;18.860;2022-09-01T13:55:40;98524.56;;;18.23;41.74
62057;BME280;48016;50.284;18.860;2022-09-01T13:58:08;98525.38;;;18.24;41.73
62057;BME280;48016;50.284;18.860;2022-09-01T14:00:39;98521.52;;;18.25;41.22
62057;BME280;48016;50.284;18.860;2022-09-01T14:03:09;98523.96;;;18.26;41.47
62057;BME280;48016;50.284;18.860;2022-09-01T14:05:41;98523.64;;;18.28;40.45
62057;BME280;48016;50.284;18.860;2022-09-01T14:08:11;98529.64;;;18.30;41.16
62057;BME280;48016;50.284;18.860;2022-09-01T14:10:42;98531.17;;;18.36;40.31
62057;BME280;48016;50.284;18.860;2022-09-01T14:13:12;98527.34;;;18.37;40.60
62057;BME280;48016;50.284;18.860;2022-09-01T14:15:39;98522.16;;;18.36;40.53
62057;BME280;48016;50.284;18.860;2022-09-01T14:18:06;98524.09;;;18.35;40.92
62057;BME280;48016;50.284;18.860;2022-09-01T14:20:36;98521.88;;;18.37;40.92
62057;BME280;48016;50.284;18.860;2022-09-01T14:23:07;98519.94;;;18.38;40.43
62057;BME280;48016;50.284;18.860;2022-09-01T14:25:40;98520.14;;;18.41;40.19
62057;BME280;48016;50.284;18.860;2022-09-01T14:28:08;98517.13;;;18.43;40.60
62057;BME280;48016;50.284;18.860;2022-09-01T14:30:35;98516.52;;;18.46;40.45